sensor_id;sensor_type;location;lat;lon;timestamp;temperature;humidity
33139;DHT22;19501;50.948;5.316;2023-04-25T00:01:38;8.60;99.90
33139;DHT22;19501;50.948;5.316;2023-04-25T00:04:04;8.60;99.90
33139;DHT22;19501;50.948;5.316;2023-04-25T00:06:32;8.60;99.90
33139;DHT22;19501;50.948;5.316;2023-04-25T00:08:58;8.50;99.90
33139;DHT22;19501;50.948;5.316;2023-04-25T00:11:24;8.50;99.90
33139;DHT22;19501;50.948;5.316;2023-04-25T00:13:49;8.60;99.90
33139;DHT22;19501;50.948;5.316;2023-04-25T00:16:20;8.60;99.90
33139;DHT22;19501;50.948;5.316;2023-04-25T00:18:46;8.50;99.90
33139;DHT22;19501;50.948;5.316;2023-04-25T00:21:17;8.50;99.90
33139;DHT22;19501;50.948;5.316;2023-04-25T00:23:43;8.50;99.90
33139;DHT22;19501;50.948;5.316;2023-04-25T00:26:11;8.40;99.90
33139;DHT22;19501;50.948;5.316;2023-04-25T00:28:37;8.40;99.90
33139;DHT22;19501;50.948;5.316;2023-04-25T00:31:03;8.50;99.90
33139;DHT22;19501;50.948;5.316;2023-04-25T00:33:29;8.50;99.90
33139;DHT22;19501;50.948;5.316;2023-04-25T00:35:55;8.60;99.90
33139;DHT22;19501;50.948;5.316;2023-04-25T00:38:21;8.50;99.90
33139;DHT22;19501;50.948;5.316;2023-04-25T00:40:47;8.40;99.90
33139;DHT22;19501;50.948;5.316;2023-04-25T00:43:13;8.40;99.90
33139;DHT22;19501;50.948;5.316;2023-04-25T00:45:39;8.40;99.90
33139;DHT22;19501;50.948;5.316;2023-04-25T00:48:05;8.40;99.90
33139;DHT22;19501;50.948;5.316;2023-04-25T00:50:33;8.40;99.90
33139;DHT22;19501;50.948;5.316;2023-04-25T00:52:59;8.40;99.90
33139;DHT22;19501;50.948;5.316;2023-04-25T00:55:29;8.40;99.90
33139;DHT22;19501;50.948;5.316;2023-04-25T00:57:57;8.40;99.90
33139;DHT22;19501;50.948;5.316;2023-04-25T01:00:22;8.40;99.90
33139;DHT22;19501;50.948;5.316;2023-04-25T01:02:48;8.40;99.90
33139;DHT22;19501;50.948;5.316;2023-04-25T01:05:15;8.50;99.90
33139;DHT22;19501;50.948;5.316;2023-04-25T01:07:40;8.60;99.90
33139;DHT22;19501;50.948;5.316;2023-04-25T01:10:09;8.50;99.90
33139;DHT22;19501;50.948;5.316;2023-04-25T01:12:34;8.40;99.90
33139;DHT22;19501;50.948;5.316;2023-04-25T01:15:00;8.40;99.90
33139;DHT22;19501;50.948;5.316;2023-04-25T01:17:26;8.40;99.90
33139;DHT22;19501;50.948;5.316;2023-04-25T01:19:52;8.40;99.90
33139;DHT22;19501;50.948;5.316;2023-04-25T01:22:18;8.30;99.90
33139;DHT22;19501;50.948;5.316;2023-04-25T01:24:45;8.40;99.90
33139;DHT22;19501;50.948;5.316;2023-04-25T01:27:10;8.30;99.90
33139;DHT22;19501;50.948;5.316;2023-04-25T01:29:37;8.30;99.90
33139;DHT22;19501;50.948;5.316;2023-04-25T01:32:03;8.20;99.90
33139;DHT22;19501;50.948;5.316;2023-04-25T01:34:29;8.20;99.90
33139;DHT22;19501;50.948;5.316;2023-04-25T01:36:55;8.20;99.90
33139;DHT22;19501;50.948;5.316;2023-04-25T01:39:23;8.10;99.90
33139;DHT22;19501;50.948;5.316;2023-04-25T01:41:50;8.20;99.90
33139;DHT22;19501;50.948;5.316;2023-04-25T01:44:16;8.30;99.90
33139;DHT22;19501;50.948;5.316;2023-04-25T01:46:42;8.30;99.90
33139;DHT22;19501;50.948;5.316;2023-04-25T01:49:08;8.40;99.90
33139;DHT22;19501;50.948;5.316;2023-04-25T01:51:33;8.40;99.90
33139;DHT22;19501;50.948;5.316;2023-04-25T01:54:02;8.40;99.90
33139;DHT22;19501;50.948;5.316;2023-04-25T01:56:32;8.20;99.90
33139;DHT22;19501;50.948;5.316;2023-04-25T01:58:58;8.20;99.90
33139;DHT22;19501;50.948;5.316;2023-04-25T02:01:24;8.10;99.90
33139;DHT22;19501;50.948;5.316;2023-04-25T02:03:50;8.10;99.90
33139;DHT22;19501;50.948;5.316;2023-04-25T02:06:16;8.00;99.90
33139;DHT22;19501;50.948;5.316;2023-04-25T02:08:41;7.90;99.90
33139;DHT22;19501;50.948;5.316;2023-04-25T02:11:07;7.90;99.90
33139;DHT22;19501;50.948;5.316;2023-04-25T02:13:33;7.90;99.90
33139;DHT22;19501;50.948;5.316;2023-04-25T02:15:58;8.00;99.90
33139;DHT22;19501;50.948;5.316;2023-04-25T02:18:24;8.10;99.90
33139;DHT22;19501;50.948;5.316;2023-04-25T02:20:51;8.10;99.90
33139;DHT22;19501;50.948;5.316;2023-04-25T02:23:17;8.10;99.90
33139;DHT22;19501;50.948;5.316;2023-04-25T02:25:44;8.00;99.90
33139;DHT22;19501;50.948;5.316;2023-04-25T02:28:10;8.10;99.90
33139;DHT22;19501;50.948;5.316;2023-04-25T02:30:36;8.10;99.90
33139;DHT22;19501;50.948;5.316;2023-04-25T02:33:02;8.10;99.90
33139;DHT22;19501;50.948;5.316;2023-04-25T02:35:27;8.10;99.90
33139;DHT22;19501;50.948;5.316;2023-04-25T02:37:53;8.00;99.90
33139;DHT22;19501;50.948;5.316;2023-04-25T02:40:19;8.00;99.90
33139;DHT22;19501;50.948;5.316;2023-04-25T02:42:45;7.90;99.90
33139;DHT22;19501;50.948;5.316;2023-04-25T02:45:11;7.80;99.90
33139;DHT22;19501;50.948;5.316;2023-04-25T02:47:37;7.90;99.90
33139;DHT22;19501;50.948;5.316;2023-04-25T02:50:03;7.90;99.90
33139;DHT22;19501;50.948;5.316;2023-04-25T02:52:29;7.80;99.90
33139;DHT22;19501;50.948;5.316;2023-04-25T02:54:54;7.90;99.90
33139;DHT22;19501;50.948;5.316;2023-04-25T02:57:20;7.80;99.90
33139;DHT22;19501;50.948;5.316;2023-04-25T02:59:46;7.90;99.90
33139;DHT22;19501;50.948;5.316;2023-04-25T03:02:12;8.00;99.90
33139;DHT22;19501;50.948;5.316;2023-04-25T03:04:37;8.00;99.90
33139;DHT22;19501;50.948;5.316;2023-04-25T03:07:04;8.10;99.90
33139;DHT22;19501;50.948;5.316;2023-04-25T03:09:29;8.10;99.90
33139;DHT22;19501;50.948;5.316;2023-04-25T03:11:55;8.00;99.90
33139;DHT22;19501;50.948;5.316;2023-04-25T03:14:21;7.80;99.90
33139;DHT22;19501;50.948;5.316;2023-04-25T03:16:46;7.90;99.90
33139;DHT22;19501;50.948;5.316;2023-04-25T03:19:12;8.00;99.90
33139;DHT22;19501;50.948;5.316;2023-04-25T03:21:41;8.00;99.90
33139;DHT22;19501;50.948;5.316;2023-04-25T03:24:07;7.90;99.90
33139;DHT22;19501;50.948;5.316;2023-04-25T03:26:32;8.00;99.90
33139;DHT22;19501;50.948;5.316;2023-04-25T03:28:58;7.90;99.90
33139;DHT22;19501;50.948;5.316;2023-04-25T03:31:24;7.90;99.90
33139;DHT22;19501;50.948;5.316;2023-04-25T03:33:50;7.90;99.90
33139;DHT22;19501;50.948;5.316;2023-04-25T03:36:16;7.90;99.90
33139;DHT22;19501;50.948;5.316;2023-04-25T03:38:41;8.00;99.90
33139;DHT22;19501;50.948;5.316;2023-04-25T03:41:07;8.00;99.90
33139;DHT22;19501;50.948;5.316;2023-04-25T03:43:33;8.00;99.90
33139;DHT22;19501;50.948;5.316;2023-04-25T03:45:59;8.00;99.90
33139;DHT22;19501;50.948;5.316;2023-04-25T03:48:26;7.90;99.90
33139;DHT22;19501;50.948;5.316;2023-04-25T03:50:53;7.80;99.90
33139;DHT22;19501;50.948;5.316;2023-04-25T03:53:19;7.80;99.90
33139;DHT22;19501;50.948;5.316;2023-04-25T03:55:45;7.80;99.90
33139;DHT22;19501;50.948;5.316;2023-04-25T03:58:10;7.90;99.90
33139;DHT22;19501;50.948;5.316;2023-04-25T04:00:36;7.90;99.90
33139;DHT22;19501;50.948;5.316;2023-04-25T04:03:02;7.90;99.90
33139;DHT22;19501;50.948;5.316;2023-04-25T04:05:27;7.90;99.90
33139;DHT22;19501;50.948;5.316;2023-04-25T04:07:54;7.70;99.90
33139;DHT22;19501;50.948;5.316;2023-04-25T04:10:20;7.70;99.90
33139;DHT22;19501;50.948;5.316;2023-04-25T04:12:46;7.60;99.90
33139;DHT22;19501;50.948;5.316;2023-04-25T04:15:12;7.50;99.90
33139;DHT22;19501;50.948;5.316;2023-04-25T04:17:38;7.40;99.90
33139;DHT22;19501;50.948;5.316;2023-04-25T04:20:04;7.50;99.90
33139;DHT22;19501;50.948;5.316;2023-04-25T04:22:31;7.50;99.90
33139;DHT22;19501;50.948;5.316;2023-04-25T04:24:57;7.40;99.90
33139;DHT22;19501;50.948;5.316;2023-04-25T04:27:23;7.40;99.90
33139;DHT22;19501;50.948;5.316;2023-04-25T04:29:49;7.40;99.90
33139;DHT22;19501;50.948;5.316;2023-04-25T04:32:19;7.40;99.90
33139;DHT22;19501;50.948;5.316;2023-04-25T04:34:44;7.40;99.90
33139;DHT22;19501;50.948;5.316;2023-04-25T04:37:13;7.40;99.90
33139;DHT22;19501;50.948;5.316;2023-04-25T04:39:38;7.50;99.90
33139;DHT22;19501;50.948;5.316;2023-04-25T04:42:04;7.60;99.90
33139;DHT22;19501;50.948;5.316;2023-04-25T04:44:31;7.50;99.90
33139;DHT22;19501;50.948;5.316;2023-04-25T04:47:00;7.40;99.90
33139;DHT22;19501;50.948;5.316;2023-04-25T04:49:27;7.40;99.90
33139;DHT22;19501;50.948;5.316;2023-04-25T04:51:52;7.40;99.90
33139;DHT22;19501;50.948;5.316;2023-04-25T04:54:20;7.50;99.90
33139;DHT22;19501;50.948;5.316;2023-04-25T04:56:45;7.40;99.90
33139;DHT22;19501;50.948;5.316;2023-04-25T04:59:11;7.40;99.90
33139;DHT22;19501;50.948;5.316;2023-04-25T05:01:37;7.30;99.90
33139;DHT22;19501;50.948;5.316;2023-04-25T05:04:03;7.30;99.90
33139;DHT22;19501;50.948;5.316;2023-04-25T05:06:29;7.30;99.90
33139;DHT22;19501;50.948;5.316;2023-04-25T05:08:56;7.30;99.90
33139;DHT22;19501;50.948;5.316;2023-04-25T05:11:22;7.40;99.90
33139;DHT22;19501;50.948;5.316;2023-04-25T05:13:49;7.60;99.90
33139;DHT22;19501;50.948;5.316;2023-04-25T05:16:15;7.80;99.90
33139;DHT22;19501;50.948;5.316;2023-04-25T05:18:40;7.80;99.90
33139;DHT22;19501;50.948;5.316;2023-04-25T05:21:06;7.70;99.90
33139;DHT22;19501;50.948;5.316;2023-04-25T05:23:35;7.70;99.90
33139;DHT22;19501;50.948;5.316;2023-04-25T05:26:00;7.80;99.90
33139;DHT22;19501;50.948;5.316;2023-04-25T05:28:26;7.70;99.90
33139;DHT22;19501;50.948;5.316;2023-04-25T05:30:52;7.90;99.90
33139;DHT22;19501;50.948;5.316;2023-04-25T05:33:18;7.80;99.90
33139;DHT22;19501;50.948;5.316;2023-04-25T05:35:44;7.80;99.90
33139;DHT22;19501;50.948;5.316;2023-04-25T05:38:10;7.70;99.90
33139;DHT22;19501;50.948;5.316;2023-04-25T05:40:36;7.70;99.90
33139;DHT22;19501;50.948;5.316;2023-04-25T05:43:02;7.80;99.90
33139;DHT22;19501;50.948;5.316;2023-04-25T05:45:27;8.00;99.90
33139;DHT22;19501;50.948;5.316;2023-04-25T05:47:53;7.90;99.90
33139;DHT22;19501;50.948;5.316;2023-04-25T05:50:19;7.90;99.90
33139;DHT22;19501;50.948;5.316;2023-04-25T05:52:44;8.00;99.90
33139;DHT22;19501;50.948;5.316;2023-04-25T05:55:10;8.10;99.90
33139;DHT22;19501;50.948;5.316;2023-04-25T05:57:36;8.20;99.90
33139;DHT22;19501;50.948;5.316;2023-04-25T06:00:02;8.30;99.90
33139;DHT22;19501;50.948;5.316;2023-04-25T06:02:28;8.60;99.90
33139;DHT22;19501;50.948;5.316;2023-04-25T06:04:54;8.60;99.90
33139;DHT22;19501;50.948;5.316;2023-04-25T06:07:20;8.80;99.90
33139;DHT22;19501;50.948;5.316;2023-04-25T06:09:46;8.80;99.90
33139;DHT22;19501;50.948;5.316;2023-04-25T06:12:11;8.80;99.90
33139;DHT22;19501;50.948;5.316;2023-04-25T06:14:37;8.90;99.90
33139;DHT22;19501;50.948;5.316;2023-04-25T06:17:05;8.80;99.90
33139;DHT22;19501;50.948;5.316;2023-04-25T06:19:35;8.80;99.90
33139;DHT22;19501;50.948;5.316;2023-04-25T06:22:01;8.90;99.90
33139;DHT22;19501;50.948;5.316;2023-04-25T06:24:27;9.10;99.90
33139;DHT22;19501;50.948;5.316;2023-04-25T06:26:53;9.00;99.90
33139;DHT22;19501;50.948;5.316;2023-04-25T06:29:19;9.20;99.90
33139;DHT22;19501;50.948;5.316;2023-04-25T06:31:44;9.20;99.90
33139;DHT22;19501;50.948;5.316;2023-04-25T06:34:10;9.00;99.90
33139;DHT22;19501;50.948;5.316;2023-04-25T06:36:36;9.10;99.90
33139;DHT22;19501;50.948;5.316;2023-04-25T06:39:02;9.30;99.90
33139;DHT22;19501;50.948;5.316;2023-04-25T06:41:28;9.30;99.90
33139;DHT22;19501;50.948;5.316;2023-04-25T06:43:53;9.40;99.90
33139;DHT22;19501;50.948;5.316;2023-04-25T06:46:19;9.30;99.90
33139;DHT22;19501;50.948;5.316;2023-04-25T06:48:45;9.20;99.90
33139;DHT22;19501;50.948;5.316;2023-04-25T06:51:10;9.20;99.90
33139;DHT22;19501;50.948;5.316;2023-04-25T06:53:36;9.20;99.90
33139;DHT22;19501;50.948;5.316;2023-04-25T06:56:02;9.40;99.90
33139;DHT22;19501;50.948;5.316;2023-04-25T06:58:28;9.30;99.90
33139;DHT22;19501;50.948;5.316;2023-04-25T07:00:54;9.30;99.90
33139;DHT22;19501;50.948;5.316;2023-04-25T07:03:19;9.30;99.90
33139;DHT22;19501;50.948;5.316;2023-04-25T07:05:45;9.30;99.90
33139;DHT22;19501;50.948;5.316;2023-04-25T07:08:11;9.20;99.90
33139;DHT22;19501;50.948;5.316;2023-04-25T07:10:37;9.30;99.90
33139;DHT22;19501;50.948;5.316;2023-04-25T07:13:03;9.20;99.90
33139;DHT22;19501;50.948;5.316;2023-04-25T07:15:28;9.20;99.90
33139;DHT22;19501;50.948;5.316;2023-04-25T07:17:54;9.40;99.90
33139;DHT22;19501;50.948;5.316;2023-04-25T07:20:20;9.20;99.90
33139;DHT22;19501;50.948;5.316;2023-04-25T07:22:46;9.50;99.90
33139;DHT22;19501;50.948;5.316;2023-04-25T07:25:12;9.60;99.90
33139;DHT22;19501;50.948;5.316;2023-04-25T07:27:37;9.80;99.90
33139;DHT22;19501;50.948;5.316;2023-04-25T07:30:04;9.90;99.90
33139;DHT22;19501;50.948;5.316;2023-04-25T07:32:30;10.00;99.90
33139;DHT22;19501;50.948;5.316;2023-04-25T07:34:55;10.00;99.90
33139;DHT22;19501;50.948;5.316;2023-04-25T07:37:21;10.00;99.90
33139;DHT22;19501;50.948;5.316;2023-04-25T07:39:47;10.10;99.90
33139;DHT22;19501;50.948;5.316;2023-04-25T07:42:13;10.30;99.90
33139;DHT22;19501;50.948;5.316;2023-04-25T07:44:38;10.40;99.90
33139;DHT22;19501;50.948;5.316;2023-04-25T07:47:09;10.40;99.90
33139;DHT22;19501;50.948;5.316;2023-04-25T07:49:38;10.50;99.90
33139;DHT22;19501;50.948;5.316;2023-04-25T07:52:04;10.30;99.90
33139;DHT22;19501;50.948;5.316;2023-04-25T07:54:31;10.40;99.90
33139;DHT22;19501;50.948;5.316;2023-04-25T07:56:58;10.50;99.90
33139;DHT22;19501;50.948;5.316;2023-04-25T07:59:23;10.40;99.90
33139;DHT22;19501;50.948;5.316;2023-04-25T08:01:49;10.50;99.90
33139;DHT22;19501;50.948;5.316;2023-04-25T08:04:16;10.60;99.90
33139;DHT22;19501;50.948;5.316;2023-04-25T08:06:42;10.60;99.90
33139;DHT22;19501;50.948;5.316;2023-04-25T08:09:08;10.70;99.90
33139;DHT22;19501;50.948;5.316;2023-04-25T08:11:35;10.40;99.90
33139;DHT22;19501;50.948;5.316;2023-04-25T08:14:01;10.40;99.90
33139;DHT22;19501;50.948;5.316;2023-04-25T08:16:27;10.50;99.90
33139;DHT22;19501;50.948;5.316;2023-04-25T08:18:53;10.60;99.90
33139;DHT22;19501;50.948;5.316;2023-04-25T08:21:19;10.50;99.90
33139;DHT22;19501;50.948;5.316;2023-04-25T08:23:45;10.70;99.90
33139;DHT22;19501;50.948;5.316;2023-04-25T08:26:11;10.80;99.90
33139;DHT22;19501;50.948;5.316;2023-04-25T08:28:37;10.80;99.90
33139;DHT22;19501;50.948;5.316;2023-04-25T08:31:03;10.80;99.90
33139;DHT22;19501;50.948;5.316;2023-04-25T08:33:28;10.70;99.90
33139;DHT22;19501;50.948;5.316;2023-04-25T08:35:55;10.70;99.90
33139;DHT22;19501;50.948;5.316;2023-04-25T08:38:21;10.70;99.90
33139;DHT22;19501;50.948;5.316;2023-04-25T08:40:49;10.60;99.90
33139;DHT22;19501;50.948;5.316;2023-04-25T08:43:20;10.50;99.90
33139;DHT22;19501;50.948;5.316;2023-04-25T08:45:46;10.40;99.90
33139;DHT22;19501;50.948;5.316;2023-04-25T08:48:13;10.40;99.90
33139;DHT22;19501;50.948;5.316;2023-04-25T08:50:43;10.30;99.90
33139;DHT22;19501;50.948;5.316;2023-04-25T08:53:12;10.30;99.90
33139;DHT22;19501;50.948;5.316;2023-04-25T08:55:43;10.30;99.90
33139;DHT22;19501;50.948;5.316;2023-04-25T08:58:11;10.30;99.90
33139;DHT22;19501;50.948;5.316;2023-04-25T09:00:37;10.20;99.90
33139;DHT22;19501;50.948;5.316;2023-04-25T09:03:03;10.50;99.90
33139;DHT22;19501;50.948;5.316;2023-04-25T09:05:28;10.80;99.90
33139;DHT22;19501;50.948;5.316;2023-04-25T09:07:54;10.90;99.90
33139;DHT22;19501;50.948;5.316;2023-04-25T09:10:22;10.90;99.90
33139;DHT22;19501;50.948;5.316;2023-04-25T09:13:12;10.80;99.90
33139;DHT22;19501;50.948;5.316;2023-04-25T09:18:13;10.80;99.90
33139;DHT22;19501;50.948;5.316;2023-04-25T09:20:42;10.60;99.90
33139;DHT22;19501;50.948;5.316;2023-04-25T09:23:08;10.70;99.90
33139;DHT22;19501;50.948;5.316;2023-04-25T09:25:37;10.80;99.90
33139;DHT22;19501;50.948;5.316;2023-04-25T09:28:05;11.00;99.90
33139;DHT22;19501;50.948;5.316;2023-04-25T09:30:33;11.10;99.90
33139;DHT22;19501;50.948;5.316;2023-04-25T09:33:07;11.20;99.90
33139;DHT22;19501;50.948;5.316;2023-04-25T09:35:38;10.70;99.90
33139;DHT22;19501;50.948;5.316;2023-04-25T09:38:22;10.80;99.90
33139;DHT22;19501;50.948;5.316;2023-04-25T09:40:51;11.10;99.90
33139;DHT22;19501;50.948;5.316;2023-04-25T09:43:22;11.50;99.90
33139;DHT22;19501;50.948;5.316;2023-04-25T09:45:48;11.70;99.90
33139;DHT22;19501;50.948;5.316;2023-04-25T09:48:21;11.70;99.90
33139;DHT22;19501;50.948;5.316;2023-04-25T09:53:29;11.50;99.90
33139;DHT22;19501;50.948;5.316;2023-04-25T09:55:56;11.60;99.90
33139;DHT22;19501;50.948;5.316;2023-04-25T09:58:24;11.90;99.90
33139;DHT22;19501;50.948;5.316;2023-04-25T10:00:51;12.00;99.90
33139;DHT22;19501;50.948;5.316;2023-04-25T10:03:17;11.90;99.90
33139;DHT22;19501;50.948;5.316;2023-04-25T10:05:46;12.00;99.90
33139;DHT22;19501;50.948;5.316;2023-04-25T10:08:13;12.30;99.90
33139;DHT22;19501;50.948;5.316;2023-04-25T10:10:40;12.50;99.90
33139;DHT22;19501;50.948;5.316;2023-04-25T10:13:05;12.50;99.90
33139;DHT22;19501;50.948;5.316;2023-04-25T10:15:35;12.30;99.90
33139;DHT22;19501;50.948;5.316;2023-04-25T10:18:05;12.00;99.90
33139;DHT22;19501;50.948;5.316;2023-04-25T10:20:32;11.80;99.90
33139;DHT22;19501;50.948;5.316;2023-04-25T10:23:06;11.90;99.90
33139;DHT22;19501;50.948;5.316;2023-04-25T10:25:34;12.10;99.90
33139;DHT22;19501;50.948;5.316;2023-04-25T10:28:00;12.00;99.90
33139;DHT22;19501;50.948;5.316;2023-04-25T10:30:27;11.60;99.90
33139;DHT22;19501;50.948;5.316;2023-04-25T10:32:54;11.50;99.90
33139;DHT22;19501;50.948;5.316;2023-04-25T10:35:28;11.30;99.90
33139;DHT22;19501;50.948;5.316;2023-04-25T10:38:04;11.40;99.90
33139;DHT22;19501;50.948;5.316;2023-04-25T10:40:33;11.50;99.90
33139;DHT22;19501;50.948;5.316;2023-04-25T10:43:34;11.60;99.90
33139;DHT22;19501;50.948;5.316;2023-04-25T10:46:12;11.90;99.90
33139;DHT22;19501;50.948;5.316;2023-04-25T10:48:50;12.60;99.90
33139;DHT22;19501;50.948;5.316;2023-04-25T10:56:22;13.40;98.30
33139;DHT22;19501;50.948;5.316;2023-04-25T10:58:49;13.10;97.60
33139;DHT22;19501;50.948;5.316;2023-04-25T11:01:20;13.10;97.40
33139;DHT22;19501;50.948;5.316;2023-04-25T11:03:45;12.60;96.90
33139;DHT22;19501;50.948;5.316;2023-04-25T11:06:47;12.50;96.20
33139;DHT22;19501;50.948;5.316;2023-04-25T11:09:17;12.10;95.80
33139;DHT22;19501;50.948;5.316;2023-04-25T11:11:42;12.30;96.60
33139;DHT22;19501;50.948;5.316;2023-04-25T11:14:08;12.60;96.40
33139;DHT22;19501;50.948;5.316;2023-04-25T11:16:34;12.60;96.70
33139;DHT22;19501;50.948;5.316;2023-04-25T11:19:01;12.90;96.50
33139;DHT22;19501;50.948;5.316;2023-04-25T11:21:27;13.20;96.20
33139;DHT22;19501;50.948;5.316;2023-04-25T11:23:55;14.00;96.40
33139;DHT22;19501;50.948;5.316;2023-04-25T11:26:22;14.30;96.10
33139;DHT22;19501;50.948;5.316;2023-04-25T11:28:49;14.50;94.60
33139;DHT22;19501;50.948;5.316;2023-04-25T11:31:20;14.60;94.60
33139;DHT22;19501;50.948;5.316;2023-04-25T11:33:47;14.40;94.90
33139;DHT22;19501;50.948;5.316;2023-04-25T11:36:12;14.40;95.20
33139;DHT22;19501;50.948;5.316;2023-04-25T11:38:39;15.10;95.20
33139;DHT22;19501;50.948;5.316;2023-04-25T11:41:05;16.20;93.80
33139;DHT22;19501;50.948;5.316;2023-04-25T11:43:31;16.70;92.90
33139;DHT22;19501;50.948;5.316;2023-04-25T11:45:59;17.00;92.70
33139;DHT22;19501;50.948;5.316;2023-04-25T11:48:25;17.30;92.20
33139;DHT22;19501;50.948;5.316;2023-04-25T11:50:54;18.30;92.80
33139;DHT22;19501;50.948;5.316;2023-04-25T11:53:20;19.10;91.40
33139;DHT22;19501;50.948;5.316;2023-04-25T11:55:46;18.50;88.60
33139;DHT22;19501;50.948;5.316;2023-04-25T11:58:12;18.30;86.30
33139;DHT22;19501;50.948;5.316;2023-04-25T12:00:42;18.40;90.10
33139;DHT22;19501;50.948;5.316;2023-04-25T12:03:09;18.50;86.70
33139;DHT22;19501;50.948;5.316;2023-04-25T12:05:35;19.30;86.00
33139;DHT22;19501;50.948;5.316;2023-04-25T12:10:38;19.00;83.90
33139;DHT22;19501;50.948;5.316;2023-04-25T12:13:24;17.50;81.90
33139;DHT22;19501;50.948;5.316;2023-04-25T12:15:50;16.60;82.60
33139;DHT22;19501;50.948;5.316;2023-04-25T12:18:24;15.90;86.10
33139;DHT22;19501;50.948;5.316;2023-04-25T12:20:53;14.90;88.00
33139;DHT22;19501;50.948;5.316;2023-04-25T12:23:25;13.50;92.90
33139;DHT22;19501;50.948;5.316;2023-04-25T12:25:52;12.40;94.60
33139;DHT22;19501;50.948;5.316;2023-04-25T12:28:20;11.80;95.40
33139;DHT22;19501;50.948;5.316;2023-04-25T12:31:12;11.50;95.60
33139;DHT22;19501;50.948;5.316;2023-04-25T12:33:40;11.20;97.00
33139;DHT22;19501;50.948;5.316;2023-04-25T12:36:07;11.10;97.60
33139;DHT22;19501;50.948;5.316;2023-04-25T12:38:41;11.10;97.60
33139;DHT22;19501;50.948;5.316;2023-04-25T12:41:08;11.20;97.70
33139;DHT22;19501;50.948;5.316;2023-04-25T12:43:34;11.10;97.70
33139;DHT22;19501;50.948;5.316;2023-04-25T12:46:00;11.20;98.20
33139;DHT22;19501;50.948;5.316;2023-04-25T12:48:26;11.40;97.30
33139;DHT22;19501;50.948;5.316;2023-04-25T12:50:51;11.60;97.30
33139;DHT22;19501;50.948;5.316;2023-04-25T12:53:23;11.70;97.40
33139;DHT22;19501;50.948;5.316;2023-04-25T12:55:50;12.30;96.80
33139;DHT22;19501;50.948;5.316;2023-04-25T12:58:17;12.90;96.20
33139;DHT22;19501;50.948;5.316;2023-04-25T13:00:43;13.60;95.40
33139;DHT22;19501;50.948;5.316;2023-04-25T13:03:09;14.70;94.40
33139;DHT22;19501;50.948;5.316;2023-04-25T13:05:37;16.80;92.90
33139;DHT22;19501;50.948;5.316;2023-04-25T13:08:05;17.20;91.90
33139;DHT22;19501;50.948;5.316;2023-04-25T13:10:31;19.30;90.20
33139;DHT22;19501;50.948;5.316;2023-04-25T13:12:59;20.00;84.20
33139;DHT22;19501;50.948;5.316;2023-04-25T13:15:25;17.90;83.80
33139;DHT22;19501;50.948;5.316;2023-04-25T13:17:50;15.70;87.80
33139;DHT22;19501;50.948;5.316;2023-04-25T13:20:16;14.50;90.00
33139;DHT22;19501;50.948;5.316;2023-04-25T13:22:44;13.90;91.50
33139;DHT22;19501;50.948;5.316;2023-04-25T13:25:11;13.30;92.70
33139;DHT22;19501;50.948;5.316;2023-04-25T13:27:37;12.90;94.20
33139;DHT22;19501;50.948;5.316;2023-04-25T13:30:03;12.90;95.70
33139;DHT22;19501;50.948;5.316;2023-04-25T13:32:36;13.10;94.50
33139;DHT22;19501;50.948;5.316;2023-04-25T13:35:11;13.10;94.00
33139;DHT22;19501;50.948;5.316;2023-04-25T13:37:39;13.00;93.50
33139;DHT22;19501;50.948;5.316;2023-04-25T13:40:08;13.10;93.30
33139;DHT22;19501;50.948;5.316;2023-04-25T13:42:35;13.40;91.80
33139;DHT22;19501;50.948;5.316;2023-04-25T13:45:01;14.40;92.10
33139;DHT22;19501;50.948;5.316;2023-04-25T13:47:29;16.00;91.00
33139;DHT22;19501;50.948;5.316;2023-04-25T13:49:55;17.30;90.00
33139;DHT22;19501;50.948;5.316;2023-04-25T13:52:21;18.60;86.20
33139;DHT22;19501;50.948;5.316;2023-04-25T13:54:47;20.10;82.40
33139;DHT22;19501;50.948;5.316;2023-04-25T13:57:15;20.40;81.10
33139;DHT22;19501;50.948;5.316;2023-04-25T13:59:41;19.00;80.50
33139;DHT22;19501;50.948;5.316;2023-04-25T14:02:07;16.90;84.10
33139;DHT22;19501;50.948;5.316;2023-04-25T14:04:33;16.30;86.50
33139;DHT22;19501;50.948;5.316;2023-04-25T14:06:59;15.30;86.00
33139;DHT22;19501;50.948;5.316;2023-04-25T14:09:25;14.50;90.20
33139;DHT22;19501;50.948;5.316;2023-04-25T14:11:54;14.00;90.00
33139;DHT22;19501;50.948;5.316;2023-04-25T14:14:21;13.70;91.00
33139;DHT22;19501;50.948;5.316;2023-04-25T14:16:50;13.60;91.90
33139;DHT22;19501;50.948;5.316;2023-04-25T14:19:17;13.50;91.80
33139;DHT22;19501;50.948;5.316;2023-04-25T14:21:43;13.80;90.80
33139;DHT22;19501;50.948;5.316;2023-04-25T14:24:09;15.00;90.80
33139;DHT22;19501;50.948;5.316;2023-04-25T14:26:36;17.00;84.80
33139;DHT22;19501;50.948;5.316;2023-04-25T14:29:03;19.30;86.00
33139;DHT22;19501;50.948;5.316;2023-04-25T14:31:29;19.40;80.00
33139;DHT22;19501;50.948;5.316;2023-04-25T14:33:57;17.60;83.20
33139;DHT22;19501;50.948;5.316;2023-04-25T14:36:23;16.80;85.40
33139;DHT22;19501;50.948;5.316;2023-04-25T14:38:49;15.90;86.40
33139;DHT22;19501;50.948;5.316;2023-04-25T14:41:15;14.70;87.00
33139;DHT22;19501;50.948;5.316;2023-04-25T14:43:41;14.30;90.20
33139;DHT22;19501;50.948;5.316;2023-04-25T14:46:06;14.20;90.10
33139;DHT22;19501;50.948;5.316;2023-04-25T14:48:33;14.00;88.80
33139;DHT22;19501;50.948;5.316;2023-04-25T14:50:59;14.00;90.10
33139;DHT22;19501;50.948;5.316;2023-04-25T14:53:28;13.80;88.40
33139;DHT22;19501;50.948;5.316;2023-04-25T14:55:54;14.30;88.20
33139;DHT22;19501;50.948;5.316;2023-04-25T14:58:20;15.00;90.00
33139;DHT22;19501;50.948;5.316;2023-04-25T15:00:46;16.40;87.50
33139;DHT22;19501;50.948;5.316;2023-04-25T15:03:12;17.00;85.00
33139;DHT22;19501;50.948;5.316;2023-04-25T15:05:43;16.40;85.30
33139;DHT22;19501;50.948;5.316;2023-04-25T15:08:09;16.00;86.00
33139;DHT22;19501;50.948;5.316;2023-04-25T15:10:36;15.20;87.10
33139;DHT22;19501;50.948;5.316;2023-04-25T15:13:02;15.20;87.40
33139;DHT22;19501;50.948;5.316;2023-04-25T15:15:28;15.00;88.10
33139;DHT22;19501;50.948;5.316;2023-04-25T15:17:57;15.10;87.80
33139;DHT22;19501;50.948;5.316;2023-04-25T15:20:23;15.30;86.90
33139;DHT22;19501;50.948;5.316;2023-04-25T15:22:49;15.10;84.90
33139;DHT22;19501;50.948;5.316;2023-04-25T15:25:15;14.40;87.60
33139;DHT22;19501;50.948;5.316;2023-04-25T15:27:43;14.50;88.90
33139;DHT22;19501;50.948;5.316;2023-04-25T15:30:11;15.10;89.20
33139;DHT22;19501;50.948;5.316;2023-04-25T15:32:39;15.30;89.00
33139;DHT22;19501;50.948;5.316;2023-04-25T15:35:06;14.90;88.30
33139;DHT22;19501;50.948;5.316;2023-04-25T15:37:32;14.70;88.20
33139;DHT22;19501;50.948;5.316;2023-04-25T15:40:06;14.60;89.00
33139;DHT22;19501;50.948;5.316;2023-04-25T15:42:46;13.90;90.20
33139;DHT22;19501;50.948;5.316;2023-04-25T15:45:13;13.80;90.50
33139;DHT22;19501;50.948;5.316;2023-04-25T15:47:39;13.60;90.30
33139;DHT22;19501;50.948;5.316;2023-04-25T15:50:07;13.50;90.30